sensor_id;sensor_type;location;lat;lon;timestamp;P1;durP1;ratioP1;P2;durP2;ratioP2
28022;SDS011;67403;50.104;8.758;2023-07-02T00:01:50;5.32;;;3.35;;
28022;SDS011;67403;50.104;8.758;2023-07-02T00:04:17;8.00;;;3.67;;
28022;SDS011;67403;50.104;8.758;2023-07-02T00:06:46;5.20;;;3.83;;
28022;SDS011;67403;50.104;8.758;2023-07-02T00:09:14;6.25;;;3.65;;
28022;SDS011;67403;50.104;8.758;2023-07-02T00:11:42;7.13;;;3.83;;
28022;SDS011;67403;50.104;8.758;2023-07-02T00:14:11;4.50;;;3.47;;
28022;SDS011;67403;50.104;8.758;2023-07-02T00:16:39;5.55;;;3.17;;
28022;SDS011;67403;50.104;8.758;2023-07-02T00:19:07;5.40;;;3.80;;
28022;SDS011;67403;50.104;8.758;2023-07-02T00:21:34;4.38;;;3.47;;
28022;SDS011;67403;50.104;8.758;2023-07-02T00:24:02;5.13;;;3.10;;
28022;SDS011;67403;50.104;8.758;2023-07-02T00:26:31;9.38;;;3.47;;
28022;SDS011;67403;50.104;8.758;2023-07-02T00:28:58;3.33;;;2.90;;
28022;SDS011;67403;50.104;8.758;2023-07-02T00:31:26;5.75;;;3.85;;
28022;SDS011;67403;50.104;8.758;2023-07-02T00:33:53;11.23;;;3.85;;
28022;SDS011;67403;50.104;8.758;2023-07-02T00:36:20;5.07;;;3.42;;
28022;SDS011;67403;50.104;8.758;2023-07-02T00:38:48;6.13;;;3.83;;
28022;SDS011;67403;50.104;8.758;2023-07-02T00:41:15;5.93;;;3.67;;
28022;SDS011;67403;50.104;8.758;2023-07-02T00:43:44;3.78;;;3.10;;
28022;SDS011;67403;50.104;8.758;2023-07-02T00:46:13;3.30;;;2.83;;
28022;SDS011;67403;50.104;8.758;2023-07-02T00:48:45;6.80;;;3.63;;
28022;SDS011;67403;50.104;8.758;2023-07-02T00:51:13;6.30;;;3.08;;
28022;SDS011;67403;50.104;8.758;2023-07-02T00:53:41;3.53;;;3.00;;
28022;SDS011;67403;50.104;8.758;2023-07-02T00:56:08;5.75;;;3.13;;
28022;SDS011;67403;50.104;8.758;2023-07-02T00:58:37;5.13;;;2.95;;
28022;SDS011;67403;50.104;8.758;2023-07-02T01:01:06;7.75;;;2.95;;
28022;SDS011;67403;50.104;8.758;2023-07-02T01:03:34;5.72;;;2.55;;
28022;SDS011;67403;50.104;8.758;2023-07-02T01:06:02;3.28;;;2.40;;
28022;SDS011;67403;50.104;8.758;2023-07-02T01:08:30;3.40;;;2.67;;
28022;SDS011;67403;50.104;8.758;2023-07-02T01:10:58;4.43;;;2.90;;
28022;SDS011;67403;50.104;8.758;2023-07-02T01:13:26;4.78;;;3.22;;
28022;SDS011;67403;50.104;8.758;2023-07-02T01:15:53;4.70;;;2.65;;
28022;SDS011;67403;50.104;8.758;2023-07-02T01:18:23;4.13;;;2.83;;
28022;SDS011;67403;50.104;8.758;2023-07-02T01:20:51;6.20;;;3.20;;
28022;SDS011;67403;50.104;8.758;2023-07-02T01:23:19;5.50;;;3.00;;
28022;SDS011;67403;50.104;8.758;2023-07-02T01:25:47;6.85;;;2.78;;
28022;SDS011;67403;50.104;8.758;2023-07-02T01:28:14;3.33;;;2.30;;
28022;SDS011;67403;50.104;8.758;2023-07-02T01:30:42;4.72;;;2.08;;
28022;SDS011;67403;50.104;8.758;2023-07-02T01:33:09;5.25;;;2.63;;
28022;SDS011;67403;50.104;8.758;2023-07-02T01:35:36;8.38;;;3.95;;
28022;SDS011;67403;50.104;8.758;2023-07-02T01:38:05;5.38;;;2.55;;
28022;SDS011;67403;50.104;8.758;2023-07-02T01:40:32;5.75;;;2.35;;
28022;SDS011;67403;50.104;8.758;2023-07-02T01:42:59;4.85;;;2.78;;
28022;SDS011;67403;50.104;8.758;2023-07-02T01:45:26;5.50;;;2.50;;
28022;SDS011;67403;50.104;8.758;2023-07-02T01:47:54;2.25;;;2.00;;
28022;SDS011;67403;50.104;8.758;2023-07-02T01:50:21;6.57;;;2.67;;
28022;SDS011;67403;50.104;8.758;2023-07-02T01:52:48;3.65;;;2.40;;
28022;SDS011;67403;50.104;8.758;2023-07-02T01:55:17;2.60;;;1.95;;
28022;SDS011;67403;50.104;8.758;2023-07-02T01:57:44;4.43;;;2.30;;
28022;SDS011;67403;50.104;8.758;2023-07-02T02:00:12;7.05;;;2.78;;
28022;SDS011;67403;50.104;8.758;2023-07-02T02:02:39;7.90;;;2.92;;
28022;SDS011;67403;50.104;8.758;2023-07-02T02:05:06;7.53;;;2.95;;
28022;SDS011;67403;50.104;8.758;2023-07-02T02:07:35;5.35;;;2.78;;
28022;SDS011;67403;50.104;8.758;2023-07-02T02:10:02;4.78;;;2.63;;
28022;SDS011;67403;50.104;8.758;2023-07-02T02:12:31;4.10;;;2.55;;
28022;SDS011;67403;50.104;8.758;2023-07-02T02:14:58;5.25;;;2.20;;
28022;SDS011;67403;50.104;8.758;2023-07-02T02:17:25;3.95;;;2.63;;
28022;SDS011;67403;50.104;8.758;2023-07-02T02:19:52;5.28;;;2.22;;
28022;SDS011;67403;50.104;8.758;2023-07-02T02:22:20;4.63;;;2.70;;
28022;SDS011;67403;50.104;8.758;2023-07-02T02:24:47;3.33;;;2.70;;
28022;SDS011;67403;50.104;8.758;2023-07-02T02:27:14;2.85;;;2.55;;
28022;SDS011;67403;50.104;8.758;2023-07-02T02:29:43;4.57;;;2.70;;
28022;SDS011;67403;50.104;8.758;2023-07-02T02:32:10;4.53;;;2.30;;
28022;SDS011;67403;50.104;8.758;2023-07-02T02:34:37;4.35;;;2.60;;
28022;SDS011;67403;50.104;8.758;2023-07-02T02:37:05;5.10;;;3.03;;
28022;SDS011;67403;50.104;8.758;2023-07-02T02:39:32;6.03;;;2.60;;
28022;SDS011;67403;50.104;8.758;2023-07-02T02:41:59;4.53;;;2.67;;
28022;SDS011;67403;50.104;8.758;2023-07-02T02:44:26;10.25;;;2.72;;
28022;SDS011;67403;50.104;8.758;2023-07-02T02:46:56;4.97;;;2.35;;
28022;SDS011;67403;50.104;8.758;2023-07-02T02:49:23;6.78;;;2.97;;
28022;SDS011;67403;50.104;8.758;2023-07-02T02:51:50;3.88;;;2.55;;
28022;SDS011;67403;50.104;8.758;2023-07-02T02:54:18;4.50;;;2.92;;
28022;SDS011;67403;50.104;8.758;2023-07-02T02:56:45;6.20;;;2.33;;
28022;SDS011;67403;50.104;8.758;2023-07-02T02:59:12;4.20;;;2.67;;
28022;SDS011;67403;50.104;8.758;2023-07-02T03:01:39;5.03;;;2.40;;
28022;SDS011;67403;50.104;8.758;2023-07-02T03:04:08;4.10;;;2.45;;
28022;SDS011;67403;50.104;8.758;2023-07-02T03:06:35;5.32;;;3.13;;
28022;SDS011;67403;50.104;8.758;2023-07-02T03:09:03;4.47;;;2.60;;
28022;SDS011;67403;50.104;8.758;2023-07-02T03:11:30;8.05;;;3.35;;
28022;SDS011;67403;50.104;8.758;2023-07-02T03:13:57;4.32;;;2.60;;
28022;SDS011;67403;50.104;8.758;2023-07-02T03:16:24;6.57;;;2.83;;
28022;SDS011;67403;50.104;8.758;2023-07-02T03:18:52;4.88;;;2.60;;
28022;SDS011;67403;50.104;8.758;2023-07-02T03:21:20;4.72;;;2.88;;
28022;SDS011;67403;50.104;8.758;2023-07-02T03:23:47;7.10;;;3.28;;
28022;SDS011;67403;50.104;8.758;2023-07-02T03:26:15;6.13;;;3.20;;
28022;SDS011;67403;50.104;8.758;2023-07-02T03:28:42;4.97;;;2.75;;
28022;SDS011;67403;50.104;8.758;2023-07-02T03:31:09;6.05;;;3.30;;
28022;SDS011;67403;50.104;8.758;2023-07-02T03:33:36;4.65;;;3.25;;
28022;SDS011;67403;50.104;8.758;2023-07-02T03:36:04;6.28;;;3.10;;
28022;SDS011;67403;50.104;8.758;2023-07-02T03:38:32;8.30;;;3.50;;
28022;SDS011;67403;50.104;8.758;2023-07-02T03:40:59;8.93;;;3.47;;
28022;SDS011;67403;50.104;8.758;2023-07-02T03:43:27;7.13;;;4.13;;
28022;SDS011;67403;50.104;8.758;2023-07-02T03:45:54;8.85;;;3.67;;
28022;SDS011;67403;50.104;8.758;2023-07-02T03:48:21;7.22;;;3.65;;
28022;SDS011;67403;50.104;8.758;2023-07-02T03:50:48;10.70;;;3.47;;
28022;SDS011;67403;50.104;8.758;2023-07-02T03:53:16;9.25;;;4.13;;
28022;SDS011;67403;50.104;8.758;2023-07-02T03:55:44;5.93;;;3.33;;
28022;SDS011;67403;50.104;8.758;2023-07-02T03:58:11;5.85;;;3.00;;
28022;SDS011;67403;50.104;8.758;2023-07-02T04:00:39;6.47;;;3.42;;
28022;SDS011;67403;50.104;8.758;2023-07-02T04:05:36;7.80;;;3.50;;
28022;SDS011;67403;50.104;8.758;2023-07-02T04:08:03;7.65;;;3.10;;
28022;SDS011;67403;50.104;8.758;2023-07-02T04:10:31;8.77;;;3.50;;
28022;SDS011;67403;50.104;8.758;2023-07-02T04:13:19;11.10;;;3.05;;
28022;SDS011;67403;50.104;8.758;2023-07-02T04:15:50;4.97;;;3.20;;
28022;SDS011;67403;50.104;8.758;2023-07-02T04:18:37;5.15;;;3.13;;
28022;SDS011;67403;50.104;8.758;2023-07-02T04:21:22;8.35;;;3.47;;
28022;SDS011;67403;50.104;8.758;2023-07-02T04:23:50;7.07;;;3.72;;
28022;SDS011;67403;50.104;8.758;2023-07-02T04:26:17;7.47;;;3.50;;
28022;SDS011;67403;50.104;8.758;2023-07-02T04:28:46;7.00;;;4.15;;
28022;SDS011;67403;50.104;8.758;2023-07-02T04:31:13;8.65;;;3.97;;
28022;SDS011;67403;50.104;8.758;2023-07-02T04:33:41;7.45;;;3.72;;
28022;SDS011;67403;50.104;8.758;2023-07-02T04:36:08;9.13;;;3.65;;
28022;SDS011;67403;50.104;8.758;2023-07-02T04:38:35;6.82;;;3.53;;
28022;SDS011;67403;50.104;8.758;2023-07-02T04:41:04;8.32;;;3.50;;
28022;SDS011;67403;50.104;8.758;2023-07-02T04:43:32;10.90;;;4.15;;
28022;SDS011;67403;50.104;8.758;2023-07-02T04:46:00;8.60;;;4.63;;
28022;SDS011;67403;50.104;8.758;2023-07-02T04:48:28;10.82;;;4.55;;
28022;SDS011;67403;50.104;8.758;2023-07-02T04:50:55;7.40;;;3.70;;
28022;SDS011;67403;50.104;8.758;2023-07-02T04:53:22;7.82;;;4.25;;
28022;SDS011;67403;50.104;8.758;2023-07-02T04:55:50;13.90;;;5.18;;
28022;SDS011;67403;50.104;8.758;2023-07-02T04:58:17;11.57;;;4.40;;
28022;SDS011;67403;50.104;8.758;2023-07-02T05:00:44;9.10;;;4.15;;
28022;SDS011;67403;50.104;8.758;2023-07-02T05:03:13;8.75;;;4.50;;
28022;SDS011;67403;50.104;8.758;2023-07-02T05:05:40;9.50;;;4.60;;
28022;SDS011;67403;50.104;8.758;2023-07-02T05:08:07;8.75;;;3.83;;
28022;SDS011;67403;50.104;8.758;2023-07-02T05:10:34;10.23;;;3.97;;
28022;SDS011;67403;50.104;8.758;2023-07-02T05:13:02;12.15;;;4.38;;
28022;SDS011;67403;50.104;8.758;2023-07-02T05:15:29;7.63;;;3.90;;
28022;SDS011;67403;50.104;8.758;2023-07-02T05:17:56;10.40;;;4.35;;
28022;SDS011;67403;50.104;8.758;2023-07-02T05:20:25;9.73;;;4.30;;
28022;SDS011;67403;50.104;8.758;2023-07-02T05:22:52;15.65;;;5.32;;
28022;SDS011;67403;50.104;8.758;2023-07-02T05:25:19;10.43;;;4.85;;
28022;SDS011;67403;50.104;8.758;2023-07-02T05:27:47;10.57;;;4.70;;
28022;SDS011;67403;50.104;8.758;2023-07-02T05:30:14;8.75;;;4.72;;
28022;SDS011;67403;50.104;8.758;2023-07-02T05:32:41;8.88;;;3.95;;
28022;SDS011;67403;50.104;8.758;2023-07-02T05:35:09;10.07;;;4.13;;
28022;SDS011;67403;50.104;8.758;2023-07-02T05:37:37;7.90;;;3.95;;
28022;SDS011;67403;50.104;8.758;2023-07-02T05:40:05;8.02;;;4.15;;
28022;SDS011;67403;50.104;8.758;2023-07-02T05:42:33;10.50;;;4.55;;
28022;SDS011;67403;50.104;8.758;2023-07-02T05:45:00;10.63;;;4.78;;
28022;SDS011;67403;50.104;8.758;2023-07-02T05:47:27;9.32;;;4.25;;
28022;SDS011;67403;50.104;8.758;2023-07-02T05:49:55;9.57;;;4.45;;
28022;SDS011;67403;50.104;8.758;2023-07-02T05:52:22;10.07;;;4.80;;
28022;SDS011;67403;50.104;8.758;2023-07-02T05:54:51;7.35;;;3.85;;
28022;SDS011;67403;50.104;8.758;2023-07-02T05:57:18;7.85;;;4.55;;
28022;SDS011;67403;50.104;8.758;2023-07-02T05:59:45;9.63;;;4.65;;
28022;SDS011;67403;50.104;8.758;2023-07-02T06:02:12;12.00;;;4.22;;
28022;SDS011;67403;50.104;8.758;2023-07-02T06:04:39;10.02;;;4.57;;
28022;SDS011;67403;50.104;8.758;2023-07-02T06:07:07;10.77;;;4.57;;
28022;SDS011;67403;50.104;8.758;2023-07-02T06:09:34;8.55;;;4.85;;
28022;SDS011;67403;50.104;8.758;2023-07-02T06:12:03;9.18;;;4.38;;
28022;SDS011;67403;50.104;8.758;2023-07-02T06:14:30;10.65;;;4.85;;
28022;SDS011;67403;50.104;8.758;2023-07-02T06:16:57;11.10;;;5.07;;
28022;SDS011;67403;50.104;8.758;2023-07-02T06:19:26;10.20;;;5.57;;
28022;SDS011;67403;50.104;8.758;2023-07-02T06:21:53;11.95;;;5.40;;
28022;SDS011;67403;50.104;8.758;2023-07-02T06:24:20;12.63;;;5.75;;
28022;SDS011;67403;50.104;8.758;2023-07-02T06:26:47;12.23;;;5.65;;
28022;SDS011;67403;50.104;8.758;2023-07-02T06:29:16;12.95;;;5.63;;
28022;SDS011;67403;50.104;8.758;2023-07-02T06:31:43;11.57;;;5.85;;
28022;SDS011;67403;50.104;8.758;2023-07-02T06:34:11;10.50;;;5.57;;
28022;SDS011;67403;50.104;8.758;2023-07-02T06:36:38;9.98;;;5.30;;
28022;SDS011;67403;50.104;8.758;2023-07-02T06:39:05;12.88;;;6.22;;
28022;SDS011;67403;50.104;8.758;2023-07-02T06:41:34;12.18;;;5.70;;
28022;SDS011;67403;50.104;8.758;2023-07-02T06:44:01;14.98;;;6.40;;
28022;SDS011;67403;50.104;8.758;2023-07-02T06:46:30;11.15;;;5.93;;
28022;SDS011;67403;50.104;8.758;2023-07-02T06:48:57;12.73;;;5.88;;
28022;SDS011;67403;50.104;8.758;2023-07-02T06:51:25;11.80;;;5.30;;
28022;SDS011;67403;50.104;8.758;2023-07-02T06:53:54;11.90;;;5.70;;
28022;SDS011;67403;50.104;8.758;2023-07-02T06:56:21;13.50;;;6.65;;
28022;SDS011;67403;50.104;8.758;2023-07-02T06:58:49;14.40;;;6.88;;
28022;SDS011;67403;50.104;8.758;2023-07-02T07:01:16;13.50;;;6.50;;
28022;SDS011;67403;50.104;8.758;2023-07-02T07:03:44;9.55;;;5.97;;
28022;SDS011;67403;50.104;8.758;2023-07-02T07:06:12;11.65;;;6.40;;
28022;SDS011;67403;50.104;8.758;2023-07-02T07:08:39;14.50;;;7.05;;
28022;SDS011;67403;50.104;8.758;2023-07-02T07:11:06;13.55;;;6.57;;
28022;SDS011;67403;50.104;8.758;2023-07-02T07:13:34;15.00;;;5.95;;
28022;SDS011;67403;50.104;8.758;2023-07-02T07:16:01;12.77;;;5.75;;
28022;SDS011;67403;50.104;8.758;2023-07-02T07:18:28;13.80;;;7.10;;
28022;SDS011;67403;50.104;8.758;2023-07-02T07:20:57;13.57;;;6.68;;
28022;SDS011;67403;50.104;8.758;2023-07-02T07:23:24;13.30;;;7.15;;
28022;SDS011;67403;50.104;8.758;2023-07-02T07:25:51;16.02;;;6.75;;
28022;SDS011;67403;50.104;8.758;2023-07-02T07:28:18;13.23;;;6.93;;
28022;SDS011;67403;50.104;8.758;2023-07-02T07:30:46;13.63;;;7.03;;
28022;SDS011;67403;50.104;8.758;2023-07-02T07:33:13;13.75;;;7.03;;
28022;SDS011;67403;50.104;8.758;2023-07-02T07:35:40;16.52;;;7.00;;
28022;SDS011;67403;50.104;8.758;2023-07-02T07:38:09;17.35;;;7.68;;
28022;SDS011;67403;50.104;8.758;2023-07-02T07:40:36;13.32;;;7.53;;
28022;SDS011;67403;50.104;8.758;2023-07-02T07:43:03;15.05;;;6.63;;
28022;SDS011;67403;50.104;8.758;2023-07-02T07:45:30;15.57;;;7.43;;
28022;SDS011;67403;50.104;8.758;2023-07-02T07:47:58;18.88;;;7.45;;
28022;SDS011;67403;50.104;8.758;2023-07-02T07:50:25;17.17;;;8.05;;
28022;SDS011;67403;50.104;8.758;2023-07-02T07:52:52;15.90;;;7.65;;
28022;SDS011;67403;50.104;8.758;2023-07-02T07:55:21;16.60;;;8.15;;
28022;SDS011;67403;50.104;8.758;2023-07-02T07:57:48;17.42;;;7.75;;
28022;SDS011;67403;50.104;8.758;2023-07-02T08:00:15;13.85;;;8.07;;
28022;SDS011;67403;50.104;8.758;2023-07-02T08:02:43;16.48;;;7.85;;
28022;SDS011;67403;50.104;8.758;2023-07-02T08:05:10;21.08;;;8.00;;
28022;SDS011;67403;50.104;8.758;2023-07-02T08:07:38;16.35;;;7.90;;
28022;SDS011;67403;50.104;8.758;2023-07-02T08:10:06;15.88;;;8.68;;
28022;SDS011;67403;50.104;8.758;2023-07-02T08:12:35;17.33;;;8.07;;
28022;SDS011;67403;50.104;8.758;2023-07-02T08:15:03;16.98;;;7.93;;
28022;SDS011;67403;50.104;8.758;2023-07-02T08:17:30;19.55;;;9.23;;
28022;SDS011;67403;50.104;8.758;2023-07-02T08:19:57;18.05;;;8.55;;
28022;SDS011;67403;50.104;8.758;2023-07-02T08:22:24;20.50;;;9.95;;
28022;SDS011;67403;50.104;8.758;2023-07-02T08:24:52;17.58;;;8.35;;
28022;SDS011;67403;50.104;8.758;2023-07-02T08:27:20;20.27;;;9.65;;
28022;SDS011;67403;50.104;8.758;2023-07-02T08:29:49;16.95;;;8.43;;
28022;SDS011;67403;50.104;8.758;2023-07-02T08:32:17;14.65;;;8.10;;
28022;SDS011;67403;50.104;8.758;2023-07-02T08:34:44;19.83;;;8.88;;
28022;SDS011;67403;50.104;8.758;2023-07-02T08:37:11;17.63;;;8.70;;
28022;SDS011;67403;50.104;8.758;2023-07-02T08:39:39;17.45;;;8.20;;
28022;SDS011;67403;50.104;8.758;2023-07-02T08:42:06;19.63;;;8.48;;
28022;SDS011;67403;50.104;8.758;2023-07-02T08:44:34;17.65;;;8.45;;
28022;SDS011;67403;50.104;8.758;2023-07-02T08:47:03;18.98;;;8.85;;
28022;SDS011;67403;50.104;8.758;2023-07-02T08:49:30;15.35;;;8.48;;
28022;SDS011;67403;50.104;8.758;2023-07-02T08:51:58;18.48;;;8.50;;
28022;SDS011;67403;50.104;8.758;2023-07-02T08:54:25;14.30;;;8.18;;
28022;SDS011;67403;50.104;8.758;2023-07-02T08:56:52;15.50;;;8.07;;
28022;SDS011;67403;50.104;8.758;2023-07-02T08:59:19;19.48;;;8.38;;
28022;SDS011;67403;50.104;8.758;2023-07-02T09:01:47;18.73;;;8.93;;
28022;SDS011;67403;50.104;8.758;2023-07-02T09:04:16;16.33;;;8.90;;
28022;SDS011;67403;50.104;8.758;2023-07-02T09:06:43;17.75;;;7.70;;
28022;SDS011;67403;50.104;8.758;2023-07-02T09:09:10;14.98;;;8.52;;
28022;SDS011;67403;50.104;8.758;2023-07-02T09:11:46;14.98;;;8.88;;
28022;SDS011;67403;50.104;8.758;2023-07-02T09:14:23;14.18;;;7.55;;
28022;SDS011;67403;50.104;8.758;2023-07-02T09:17:00;15.60;;;7.60;;
28022;SDS011;67403;50.104;8.758;2023-07-02T09:19:29;14.73;;;7.70;;
28022;SDS011;67403;50.104;8.758;2023-07-02T09:21:57;16.40;;;7.47;;
28022;SDS011;67403;50.104;8.758;2023-07-02T09:24:25;14.57;;;7.95;;
28022;SDS011;67403;50.104;8.758;2023-07-02T09:26:54;16.92;;;7.93;;
28022;SDS011;67403;50.104;8.758;2023-07-02T09:29:22;14.70;;;7.38;;
28022;SDS011;67403;50.104;8.758;2023-07-02T09:31:50;16.15;;;7.15;;
28022;SDS011;67403;50.104;8.758;2023-07-02T09:34:18;11.45;;;6.93;;
28022;SDS011;67403;50.104;8.758;2023-07-02T09:36:46;13.02;;;7.20;;
28022;SDS011;67403;50.104;8.758;2023-07-02T09:39:17;16.05;;;7.75;;
28022;SDS011;67403;50.104;8.758;2023-07-02T09:41:45;15.15;;;7.28;;
28022;SDS011;67403;50.104;8.758;2023-07-02T09:44:15;15.07;;;7.30;;
28022;SDS011;67403;50.104;8.758;2023-07-02T09:46:45;13.77;;;7.30;;
28022;SDS011;67403;50.104;8.758;2023-07-02T09:49:16;14.70;;;7.82;;
28022;SDS011;67403;50.104;8.758;2023-07-02T09:51:44;11.07;;;6.78;;
28022;SDS011;67403;50.104;8.758;2023-07-02T09:54:13;12.57;;;7.32;;
28022;SDS011;67403;50.104;8.758;2023-07-02T09:56:40;14.73;;;7.68;;
28022;SDS011;67403;50.104;8.758;2023-07-02T09:59:07;13.40;;;7.38;;
28022;SDS011;67403;50.104;8.758;2023-07-02T10:01:35;13.40;;;7.68;;
28022;SDS011;67403;50.104;8.758;2023-07-02T10:04:10;19.05;;;7.70;;
28022;SDS011;67403;50.104;8.758;2023-07-02T10:06:43;15.00;;;6.80;;
28022;SDS011;67403;50.104;8.758;2023-07-02T10:09:12;14.27;;;7.75;;
28022;SDS011;67403;50.104;8.758;2023-07-02T10:11:39;15.43;;;7.07;;
28022;SDS011;67403;50.104;8.758;2023-07-02T10:14:06;13.32;;;7.22;;
28022;SDS011;67403;50.104;8.758;2023-07-02T10:16:34;13.93;;;7.30;;
28022;SDS011;67403;50.104;8.758;2023-07-02T10:19:07;14.65;;;7.38;;
28022;SDS011;67403;50.104;8.758;2023-07-02T10:21:35;14.95;;;8.18;;
28022;SDS011;67403;50.104;8.758;2023-07-02T10:24:09;12.90;;;6.90;;
28022;SDS011;67403;50.104;8.758;2023-07-02T10:26:38;12.38;;;6.63;;
28022;SDS011;67403;50.104;8.758;2023-07-02T10:29:06;12.30;;;6.32;;
28022;SDS011;67403;50.104;8.758;2023-07-02T10:31:33;12.30;;;6.15;;
28022;SDS011;67403;50.104;8.758;2023-07-02T10:34:02;12.60;;;6.57;;
28022;SDS011;67403;50.104;8.758;2023-07-02T10:36:29;13.50;;;7.50;;
28022;SDS011;67403;50.104;8.758;2023-07-02T10:39:00;13.88;;;7.75;;
28022;SDS011;67403;50.104;8.758;2023-07-02T10:41:29;14.43;;;7.38;;
28022;SDS011;67403;50.104;8.758;2023-07-02T10:44:06;12.23;;;7.45;;
28022;SDS011;67403;50.104;8.758;2023-07-02T10:46:33;13.50;;;7.32;;
28022;SDS011;67403;50.104;8.758;2023-07-02T10:49:00;12.50;;;7.03;;
28022;SDS011;67403;50.104;8.758;2023-07-02T10:51:28;11.52;;;7.43;;
28022;SDS011;67403;50.104;8.758;2023-07-02T10:53:58;12.23;;;7.30;;
28022;SDS011;67403;50.104;8.758;2023-07-02T10:56:26;10.98;;;6.40;;
28022;SDS011;67403;50.104;8.758;2023-07-02T10:58:53;13.50;;;6.20;;
28022;SDS011;67403;50.104;8.758;2023-07-02T11:01:25;12.50;;;7.22;;
28022;SDS011;67403;50.104;8.758;2023-07-02T11:03:58;13.27;;;6.85;;
28022;SDS011;67403;50.104;8.758;2023-07-02T11:06:25;11.15;;;7.13;;
28022;SDS011;67403;50.104;8.758;2023-07-02T11:08:53;16.23;;;7.68;;
28022;SDS011;67403;50.104;8.758;2023-07-02T11:11:21;14.40;;;7.05;;
28022;SDS011;67403;50.104;8.758;2023-07-02T11:13:50;10.95;;;6.60;;
28022;SDS011;67403;50.104;8.758;2023-07-02T11:16:21;13.98;;;7.38;;
28022;SDS011;67403;50.104;8.758;2023-07-02T11:18:52;14.35;;;7.30;;
28022;SDS011;67403;50.104;8.758;2023-07-02T11:21:20;12.13;;;6.53;;
28022;SDS011;67403;50.104;8.758;2023-07-02T11:23:47;9.20;;;6.15;;
28022;SDS011;67403;50.104;8.758;2023-07-02T11:26:14;13.20;;;7.97;;
28022;SDS011;67403;50.104;8.758;2023-07-02T11:28:48;12.48;;;6.75;;
28022;SDS011;67403;50.104;8.758;2023-07-02T11:31:25;15.18;;;8.07;;
28022;SDS011;67403;50.104;8.758;2023-07-02T11:33:54;13.30;;;7.32;;
28022;SDS011;67403;50.104;8.758;2023-07-02T11:36:22;13.20;;;7.75;;
28022;SDS011;67403;50.104;8.758;2023-07-02T11:38:50;13.55;;;7.82;;
28022;SDS011;67403;50.104;8.758;2023-07-02T11:41:18;16.13;;;7.28;;
28022;SDS011;67403;50.104;8.758;2023-07-02T11:43:45;14.82;;;7.25;;
28022;SDS011;67403;50.104;8.758;2023-07-02T11:46:12;10.40;;;7.22;;
28022;SDS011;67403;50.104;8.758;2023-07-02T11:48:40;16.17;;;7.00;;
28022;SDS011;67403;50.104;8.758;2023-07-02T11:51:08;14.55;;;8.25;;
28022;SDS011;67403;50.104;8.758;2023-07-02T11:53:36;12.98;;;7.07;;
28022;SDS011;67403;50.104;8.758;2023-07-02T11:56:04;16.25;;;8.15;;
28022;SDS011;67403;50.104;8.758;2023-07-02T11:58:31;15.88;;;7.13;;
28022;SDS011;67403;50.104;8.758;2023-07-02T12:00:58;14.15;;;7.97;;
28022;SDS011;67403;50.104;8.758;2023-07-02T12:03:26;13.05;;;7.55;;
28022;SDS011;67403;50.104;8.758;2023-07-02T12:05:53;14.75;;;8.00;;
28022;SDS011;67403;50.104;8.758;2023-07-02T12:08:22;16.35;;;7.57;;
28022;SDS011;67403;50.104;8.758;2023-07-02T12:10:49;14.60;;;8.05;;
28022;SDS011;67403;50.104;8.758;2023-07-02T12:13:16;12.93;;;8.02;;
28022;SDS011;67403;50.104;8.758;2023-07-02T12:18:13;14.45;;;8.20;;
28022;SDS011;67403;50.104;8.758;2023-07-02T12:20:40;15.93;;;7.65;;
28022;SDS011;67403;50.104;8.758;2023-07-02T12:23:07;15.90;;;8.05;;
28022;SDS011;67403;50.104;8.758;2023-07-02T12:25:37;14.32;;;8.25;;
28022;SDS011;67403;50.104;8.758;2023-07-02T12:28:04;13.77;;;8.95;;
28022;SDS011;67403;50.104;8.758;2023-07-02T12:30:32;20.05;;;8.85;;
28022;SDS011;67403;50.104;8.758;2023-07-02T12:32:59;15.40;;;8.98;;
28022;SDS011;67403;50.104;8.758;2023-07-02T12:35:26;13.07;;;8.07;;
28022;SDS011;67403;50.104;8.758;2023-07-02T12:37:54;15.38;;;8.55;;
28022;SDS011;67403;50.104;8.758;2023-07-02T12:40:21;15.70;;;8.52;;
28022;SDS011;67403;50.104;8.758;2023-07-02T12:42:50;12.35;;;7.88;;
28022;SDS011;67403;50.104;8.758;2023-07-02T12:45:17;16.03;;;8.17;;
28022;SDS011;67403;50.104;8.758;2023-07-02T12:47:44;17.38;;;8.75;;
28022;SDS011;67403;50.104;8.758;2023-07-02T12:50:12;13.07;;;7.70;;
28022;SDS011;67403;50.104;8.758;2023-07-02T12:52:39;14.70;;;7.18;;
28022;SDS011;67403;50.104;8.758;2023-07-02T12:55:06;13.50;;;7.78;;
28022;SDS011;67403;50.104;8.758;2023-07-02T12:57:34;11.27;;;7.43;;
28022;SDS011;67403;50.104;8.758;2023-07-02T13:00:03;12.82;;;7.07;;
28022;SDS011;67403;50.104;8.758;2023-07-02T13:02:32;14.98;;;7.97;;
28022;SDS011;67403;50.104;8.758;2023-07-02T13:04:59;13.43;;;7.22;;
28022;SDS011;67403;50.104;8.758;2023-07-02T13:07:27;11.77;;;7.30;;
28022;SDS011;67403;50.104;8.758;2023-07-02T13:09:55;14.70;;;8.23;;
28022;SDS011;67403;50.104;8.758;2023-07-02T13:12:22;15.60;;;7.72;;
28022;SDS011;67403;50.104;8.758;2023-07-02T13:14:50;15.68;;;7.70;;
28022;SDS011;67403;50.104;8.758;2023-07-02T13:17:18;13.57;;;8.10;;
28022;SDS011;67403;50.104;8.758;2023-07-02T13:19:45;12.75;;;7.00;;
28022;SDS011;67403;50.104;8.758;2023-07-02T13:22:14;13.93;;;8.25;;
28022;SDS011;67403;50.104;8.758;2023-07-02T13:24:41;16.35;;;8.13;;
28022;SDS011;67403;50.104;8.758;2023-07-02T13:27:11;18.00;;;8.68;;
28022;SDS011;67403;50.104;8.758;2023-07-02T13:29:39;15.27;;;8.23;;
28022;SDS011;67403;50.104;8.758;2023-07-02T13:32:07;15.63;;;8.70;;
28022;SDS011;67403;50.104;8.758;2023-07-02T13:34:35;16.65;;;8.20;;
28022;SDS011;67403;50.104;8.758;2023-07-02T13:37:03;18.98;;;9.45;;
28022;SDS011;67403;50.104;8.758;2023-07-02T13:39:30;13.98;;;8.48;;
28022;SDS011;67403;50.104;8.758;2023-07-02T13:41:57;15.38;;;8.93;;
28022;SDS011;67403;50.104;8.758;2023-07-02T13:44:25;18.10;;;8.82;;
28022;SDS011;67403;50.104;8.758;2023-07-02T13:46:52;19.00;;;7.85;;
28022;SDS011;67403;50.104;8.758;2023-07-02T13:49:19;18.45;;;8.50;;
28022;SDS011;67403;50.104;8.758;2023-07-02T13:51:48;15.32;;;7.95;;
28022;SDS011;67403;50.104;8.758;2023-07-02T13:54:16;15.57;;;8.88;;
28022;SDS011;67403;50.104;8.758;2023-07-02T13:56:44;15.75;;;8.68;;
28022;SDS011;67403;50.104;8.758;2023-07-02T13:59:13;15.27;;;8.00;;
28022;SDS011;67403;50.104;8.758;2023-07-02T14:01:41;14.57;;;7.73;;
28022;SDS011;67403;50.104;8.758;2023-07-02T14:04:08;15.15;;;8.18;;
28022;SDS011;67403;50.104;8.758;2023-07-02T14:06:35;14.32;;;8.90;;
28022;SDS011;67403;50.104;8.758;2023-07-02T14:09:03;17.27;;;8.80;;
28022;SDS011;67403;50.104;8.758;2023-07-02T14:11:31;16.67;;;8.65;;
28022;SDS011;67403;50.104;8.758;2023-07-02T14:13:58;16.58;;;8.75;;
28022;SDS011;67403;50.104;8.758;2023-07-02T14:16:27;16.63;;;7.95;;
28022;SDS011;67403;50.104;8.758;2023-07-02T14:18:54;20.33;;;8.10;;
28022;SDS011;67403;50.104;8.758;2023-07-02T14:21:21;18.15;;;9.27;;
28022;SDS011;67403;50.104;8.758;2023-07-02T14:23:49;16.63;;;8.40;;
28022;SDS011;67403;50.104;8.758;2023-07-02T14:26:16;16.75;;;8.10;;
28022;SDS011;67403;50.104;8.758;2023-07-02T14:28:43;16.88;;;8.63;;
28022;SDS011;67403;50.104;8.758;2023-07-02T14:31:10;18.55;;;9.27;;
28022;SDS011;67403;50.104;8.758;2023-07-02T14:33:39;19.38;;;8.57;;
28022;SDS011;67403;50.104;8.758;2023-07-02T14:36:07;16.08;;;8.93;;
28022;SDS011;67403;50.104;8.758;2023-07-02T14:38:34;17.13;;;8.52;;
28022;SDS011;67403;50.104;8.758;2023-07-02T14:41:02;17.42;;;8.98;;
28022;SDS011;67403;50.104;8.758;2023-07-02T14:43:29;20.50;;;10.05;;
28022;SDS011;67403;50.104;8.758;2023-07-02T14:45:57;16.42;;;8.65;;
28022;SDS011;67403;50.104;8.758;2023-07-02T14:48:25;14.60;;;8.40;;